Marble Falls' Hourly Summary for Friday, March 17, 2017
Hour Temp
(f)
RH
(%)
Solar Rad.
(MJ/m2)
Rainfall
(in)
Wind
(mph)
3/17/2017 12:00 AM 68 81 0 0 6.05
3/17/2017 1:00 AM 67 92 0 0 8.46
3/17/2017 2:00 AM 66 93 0 0 8.46
3/17/2017 3:00 AM 67 93 0 0 6.33
3/17/2017 4:00 AM 67 88 0 0 6.91
3/17/2017 5:00 AM 67 87 0 0 6.91
3/17/2017 6:00 AM 67 87 0 0 5.25
3/17/2017 7:00 AM 67 94 0 0 5.61
3/17/2017 8:00 AM 67 96 0.03 0 6.38
3/17/2017 9:00 AM 67 98 0.14 0 7.45
3/17/2017 10:00 AM 67 98 0.26 0 7.45
3/17/2017 11:00 AM 68 93 0.51 0 8.68
3/17/2017 12:00 PM 71 81 1.2 0 8.87
3/17/2017 1:00 PM 74 69 1.45 0 9.63
3/17/2017 2:00 PM 76 61 1.45 0 9.71
3/17/2017 3:00 PM 78 55 1.86 0 10.55
3/17/2017 4:00 PM 79 49 1.86 0 10.55
3/17/2017 5:00 PM 79 47 1.47 0 9.69
3/17/2017 6:00 PM 79 47 1.47 0 9.69
3/17/2017 7:00 PM 79 49 0.77 0 8.53
3/17/2017 8:00 PM 77 56 0.17 0 7.08
3/17/2017 9:00 PM 74 63 0 0 3.02
3/17/2017 10:00 PM 71 72 0 0 3.22
3/17/2017 11:00 PM 70 88 0 0 3.88
Data Summary 71 76 12.64 0.00 7.43